Time;durP1;ratioP1;P1;durP2;ratioP2;P2;SDS_P1;SDS_P2;PMS_P1;PMS_P2;Temp;Humidity;BMP_temperature;BMP_pressure;BME280_temperature;BME280_humidity;BME280_pressure;Samples;Min_cycle;Max_cycle;Signal;HPM_P1;HPM_P2
2023/06/26 00:00:24;;;;;;;12.45;8.70;;;;;;;;;;5054096;28;20425;-84
2023/06/26 00:02:50;;;;;;;15.88;9.68;;;;;;;;;;5052626;28;20386;-85
2023/06/26 00:05:15;;;;;;;18.73;9.82;;;;;;;;;;5053879;28;20099;-83
2023/06/26 00:07:41;;;;;;;18.45;9.90;;;;;;;;;;5054200;28;20036;-85
2023/06/26 00:10:06;;;;;;;11.65;9.23;;;;;;;;;;5036029;28;20450;-83
2023/06/26 00:12:32;;;;;;;14.45;9.93;;;;;;;;;;5069272;28;20033;-83
2023/06/26 00:14:57;;;;;;;14.38;9.90;;;;;;;;;;5053709;28;20120;-82
2023/06/26 00:17:23;;;;;;;17.33;9.05;;;;;;;;;;5053302;28;20115;-83
2023/06/26 00:19:48;;;;;;;14.73;9.48;;;;;;;;;;5053617;28;20378;-83
2023/06/26 00:22:14;;;;;;;13.73;9.65;;;;;;;;;;5069855;28;20029;-83
2023/06/26 00:24:39;;;;;;;17.67;9.95;;;;;;;;;;5054145;28;20044;-83
2023/06/26 00:27:05;;;;;;;12.80;8.93;;;;;;;;;;5056414;28;20029;-83
2023/06/26 00:29:30;;;;;;;13.75;9.13;;;;;;;;;;5066926;28;20348;-83
2023/06/26 00:31:56;;;;;;;16.38;8.75;;;;;;;;;;5065618;28;20029;-83
2023/06/26 00:34:21;;;;;;;13.35;9.05;;;;;;;;;;5066487;28;20040;-81
2023/06/26 00:36:47;;;;;;;15.40;8.90;;;;;;;;;;5063524;28;20029;-82
2023/06/26 00:39:12;;;;;;;14.25;9.05;;;;;;;;;;5064844;28;20045;-84
2023/06/26 00:41:38;;;;;;;12.07;8.38;;;;;;;;;;5053849;28;20052;-83
2023/06/26 00:44:06;;;;;;;12.52;8.95;;;;;;;;;;5053516;28;20036;-82
2023/06/26 00:46:31;;;;;;;13.77;8.68;;;;;;;;;;5035594;28;20516;-82
2023/06/26 00:48:58;;;;;;;12.30;8.98;;;;;;;;;;5052027;28;20016;-83
2023/06/26 00:51:24;;;;;;;14.98;9.23;;;;;;;;;;5052172;28;20124;-82
2023/06/26 00:53:49;;;;;;;17.02;9.00;;;;;;;;;;5053306;28;20108;-82
2023/06/26 00:56:15;;;;;;;15.27;9.82;;;;;;;;;;5053323;28;20093;-83
2023/06/26 00:58:40;;;;;;;15.68;9.07;;;;;;;;;;5053208;28;20025;-82
2023/06/26 01:01:08;;;;;;;22.00;9.57;;;;;;;;;;5053318;28;20021;-82
2023/06/26 01:03:34;;;;;;;13.68;8.90;;;;;;;;;;5052717;28;20115;-82
2023/06/26 01:05:59;;;;;;;17.73;8.57;;;;;;;;;;5068812;28;20445;-84
2023/06/26 01:08:25;;;;;;;14.15;8.70;;;;;;;;;;5035388;28;20040;-83
2023/06/26 01:10:50;;;;;;;13.95;9.00;;;;;;;;;;5069959;28;20021;-83
2023/06/26 01:13:17;;;;;;;13.70;9.07;;;;;;;;;;5056105;28;20060;-83
2023/06/26 01:15:43;;;;;;;16.70;8.75;;;;;;;;;;5055670;28;20029;-83
2023/06/26 01:18:08;;;;;;;14.27;10.35;;;;;;;;;;5071911;28;20029;-82
2023/06/26 01:20:41;;;;;;;14.75;9.13;;;;;;;;;;5038931;28;20032;-83
2023/06/26 01:23:20;;;;;;;12.18;9.20;;;;;;;;;;5071515;28;20031;-85
2023/06/26 01:26:07;;;;;;;14.65;8.77;;;;;;;;;;5055594;28;20031;-83
2023/06/26 01:28:37;;;;;;;14.02;8.95;;;;;;;;;;5056610;28;20090;-83
2023/06/26 01:31:03;;;;;;;13.80;8.73;;;;;;;;;;5071782;28;20040;-84
2023/06/26 01:33:28;;;;;;;16.55;8.70;;;;;;;;;;5055361;28;20028;-83
2023/06/26 01:35:54;;;;;;;12.75;8.90;;;;;;;;;;5055368;28;20098;-83
2023/06/26 01:38:20;;;;;;;13.00;8.70;;;;;;;;;;5055216;28;20033;-84
2023/06/26 01:40:45;;;;;;;14.32;8.43;;;;;;;;;;5056364;28;20055;-83
2023/06/26 01:43:33;;;;;;;18.83;9.05;;;;;;;;;;5055164;28;20052;-84
2023/06/26 01:46:01;;;;;;;11.82;8.05;;;;;;;;;;5071434;28;20064;-83
2023/06/26 01:48:30;;;;;;;12.48;8.30;;;;;;;;;;5071693;28;20063;-84
2023/06/26 01:50:56;;;;;;;12.77;8.20;;;;;;;;;;5055149;28;20025;-83
2023/06/26 01:53:24;;;;;;;13.90;8.23;;;;;;;;;;5054943;28;20223;-83
2023/06/26 01:55:54;;;;;;;15.60;8.02;;;;;;;;;;5071788;28;20112;-83
2023/06/26 01:58:20;;;;;;;11.23;7.32;;;;;;;;;;5055270;28;20082;-84
2023/06/26 02:00:46;;;;;;;14.27;8.02;;;;;;;;;;5071182;28;20522;-84
2023/06/26 02:03:11;;;;;;;10.32;7.28;;;;;;;;;;5037868;28;20155;-84
2023/06/26 02:05:37;;;;;;;12.20;7.90;;;;;;;;;;5071441;28;20048;-84
2023/06/26 02:08:02;;;;;;;11.18;7.70;;;;;;;;;;5055892;28;20437;-84
2023/06/26 02:10:28;;;;;;;16.38;8.20;;;;;;;;;;5071607;28;20386;-84
2023/06/26 02:12:53;;;;;;;10.10;7.55;;;;;;;;;;5055834;28;20033;-83
2023/06/26 02:15:19;;;;;;;16.23;8.20;;;;;;;;;;5055572;28;20064;-83
2023/06/26 02:17:47;;;;;;;13.75;7.85;;;;;;;;;;5071259;28;20162;-84
2023/06/26 02:20:13;;;;;;;13.82;8.43;;;;;;;;;;5055616;28;20078;-84
2023/06/26 02:22:39;;;;;;;18.77;8.63;;;;;;;;;;5054006;28;20102;-84
2023/06/26 02:25:05;;;;;;;15.13;8.73;;;;;;;;;;5070973;28;20025;-83
2023/06/26 02:27:30;;;;;;;12.70;8.10;;;;;;;;;;5037634;28;20033;-83
2023/06/26 02:29:56;;;;;;;15.48;8.32;;;;;;;;;;5055492;28;20044;-83
2023/06/26 02:32:21;;;;;;;12.90;8.20;;;;;;;;;;5055460;28;20025;-84
2023/06/26 02:34:46;;;;;;;11.10;7.63;;;;;;;;;;5055387;28;20142;-83
2023/06/26 02:37:12;;;;;;;12.77;8.35;;;;;;;;;;5055373;28;20029;-84
2023/06/26 02:39:38;;;;;;;13.07;8.05;;;;;;;;;;5055264;28;20059;-83
2023/06/26 02:42:03;;;;;;;14.25;8.60;;;;;;;;;;5055211;28;20454;-83
2023/06/26 02:44:29;;;;;;;13.48;8.60;;;;;;;;;;5070216;28;20024;-83
2023/06/26 02:46:54;;;;;;;15.73;8.30;;;;;;;;;;5055213;28;20171;-83
2023/06/26 02:49:20;;;;;;;13.13;8.45;;;;;;;;;;5055147;28;20440;-84
2023/06/26 02:51:45;;;;;;;18.45;7.97;;;;;;;;;;5055038;28;20032;-82
2023/06/26 02:54:10;;;;;;;14.13;8.15;;;;;;;;;;5053977;28;20029;-83
2023/06/26 02:56:36;;;;;;;19.00;9.15;;;;;;;;;;5055155;28;20051;-83
2023/06/26 02:59:01;;;;;;;11.50;8.25;;;;;;;;;;5054646;28;20514;-83
2023/06/26 03:01:27;;;;;;;14.18;8.40;;;;;;;;;;5054925;28;20029;-83
2023/06/26 03:03:52;;;;;;;12.70;8.05;;;;;;;;;;5053568;28;20033;-84
2023/06/26 03:06:18;;;;;;;13.45;8.85;;;;;;;;;;5054757;28;20039;-83
2023/06/26 03:08:43;;;;;;;16.27;8.15;;;;;;;;;;5070272;28;20033;-83
2023/06/26 03:11:09;;;;;;;11.35;8.77;;;;;;;;;;5054729;28;20036;-83
2023/06/26 03:13:34;;;;;;;11.48;7.95;;;;;;;;;;5054384;28;20033;-83
2023/06/26 03:16:00;;;;;;;15.40;8.60;;;;;;;;;;5053430;28;20063;-82
2023/06/26 03:18:25;;;;;;;18.58;8.60;;;;;;;;;;5054593;28;20079;-84
2023/06/26 03:20:53;;;;;;;20.80;9.07;;;;;;;;;;5054547;28;20039;-83
2023/06/26 03:23:19;;;;;;;12.55;8.10;;;;;;;;;;5053067;28;20451;-83
2023/06/26 03:25:44;;;;;;;12.02;8.15;;;;;;;;;;5054476;28;20074;-83
2023/06/26 03:28:10;;;;;;;10.65;8.23;;;;;;;;;;5054093;28;20021;-83
2023/06/26 03:30:35;;;;;;;16.77;8.55;;;;;;;;;;5054240;28;20060;-83
2023/06/26 03:33:01;;;;;;;14.50;7.95;;;;;;;;;;5053562;28;20115;-83
2023/06/26 03:35:26;;;;;;;11.00;7.90;;;;;;;;;;5054546;28;20500;-83
2023/06/26 03:37:51;;;;;;;12.32;8.18;;;;;;;;;;5054153;28;20572;-84
2023/06/26 03:40:17;;;;;;;12.85;8.80;;;;;;;;;;5054223;28;20128;-84
2023/06/26 03:42:42;;;;;;;11.80;8.32;;;;;;;;;;5069247;28;20029;-83
2023/06/26 03:45:08;;;;;;;11.77;8.48;;;;;;;;;;5054093;28;20439;-84
2023/06/26 03:47:33;;;;;;;15.20;8.45;;;;;;;;;;5052891;28;20036;-83
2023/06/26 03:49:59;;;;;;;12.57;8.52;;;;;;;;;;5052883;28;20029;-84
2023/06/26 03:52:24;;;;;;;12.75;8.23;;;;;;;;;;5054076;28;20158;-83
2023/06/26 03:54:49;;;;;;;13.68;9.00;;;;;;;;;;5036121;28;20036;-84
2023/06/26 03:57:15;;;;;;;11.90;8.15;;;;;;;;;;5053711;28;20036;-83
2023/06/26 03:59:40;;;;;;;12.50;8.70;;;;;;;;;;5054030;28;20033;-82
2023/06/26 04:02:06;;;;;;;11.82;8.85;;;;;;;;;;5054011;28;20045;-83
2023/06/26 04:04:31;;;;;;;16.08;8.10;;;;;;;;;;5053819;28;20085;-83
2023/06/26 04:06:58;;;;;;;10.68;8.43;;;;;;;;;;5052679;28;20359;-84
2023/06/26 04:09:24;;;;;;;11.95;9.07;;;;;;;;;;5052691;28;20025;-84
2023/06/26 04:11:50;;;;;;;15.07;8.68;;;;;;;;;;5036007;28;20362;-84
2023/06/26 04:14:15;;;;;;;13.82;8.55;;;;;;;;;;5052491;28;20470;-83
2023/06/26 04:16:40;;;;;;;16.60;8.95;;;;;;;;;;5053689;28;20356;-83
2023/06/26 04:19:06;;;;;;;13.70;8.73;;;;;;;;;;5053970;28;20472;-84
2023/06/26 04:21:31;;;;;;;11.63;8.35;;;;;;;;;;5054155;28;20025;-84
2023/06/26 04:23:57;;;;;;;14.05;8.65;;;;;;;;;;5053742;28;20131;-83
2023/06/26 04:26:22;;;;;;;11.85;8.23;;;;;;;;;;5053416;28;20116;-83
2023/06/26 04:28:48;;;;;;;10.82;8.32;;;;;;;;;;5053203;28;20048;-82
2023/06/26 04:31:13;;;;;;;10.95;8.07;;;;;;;;;;5053867;28;20063;-85
2023/06/26 04:33:39;;;;;;;13.40;8.18;;;;;;;;;;5054697;28;20099;-82
2023/06/26 04:36:05;;;;;;;11.10;8.10;;;;;;;;;;5061781;28;20089;-82
2023/06/26 04:38:31;;;;;;;14.73;8.32;;;;;;;;;;5056627;28;20486;-83
2023/06/26 04:40:57;;;;;;;10.23;8.35;;;;;;;;;;5055305;28;20052;-82
2023/06/26 04:43:22;;;;;;;12.88;9.43;;;;;;;;;;5055628;28;20037;-81
2023/06/26 04:45:48;;;;;;;14.20;9.52;;;;;;;;;;5056785;28;20086;-80
2023/06/26 04:48:14;;;;;;;11.18;8.93;;;;;;;;;;5056929;28;20375;-82
2023/06/26 04:51:00;;;;;;;12.80;9.05;;;;;;;;;;5055780;28;20083;-82
2023/06/26 04:53:26;;;;;;;19.58;8.93;;;;;;;;;;5048471;28;20037;-82
2023/06/26 04:55:51;;;;;;;12.45;7.97;;;;;;;;;;5018719;28;20073;-82
2023/06/26 04:58:17;;;;;;;12.90;8.02;;;;;;;;;;5051131;28;20033;-84
2023/06/26 05:00:43;;;;;;;13.73;7.65;;;;;;;;;;5049528;28;20139;-84
2023/06/26 05:03:12;;;;;;;12.52;7.72;;;;;;;;;;5002951;28;20107;-84
2023/06/26 05:05:37;;;;;;;11.75;7.03;;;;;;;;;;5041042;28;20029;-81
2023/06/26 05:08:22;;;;;;;10.30;7.60;;;;;;;;;;5042433;28;20032;-80
2023/06/26 05:10:48;;;;;;;11.73;7.03;;;;;;;;;;5041777;28;20187;-82
2023/06/26 05:13:23;;;;;;;9.52;6.95;;;;;;;;;;5042103;28;20029;-86
2023/06/26 05:15:49;;;;;;;9.73;6.47;;;;;;;;;;5024984;28;20205;-83
2023/06/26 05:18:14;;;;;;;11.70;6.30;;;;;;;;;;5043128;28;20036;-84
2023/06/26 05:20:40;;;;;;;8.85;5.78;;;;;;;;;;5044172;28;20021;-84
2023/06/26 05:23:05;;;;;;;8.85;6.20;;;;;;;;;;5033537;28;20033;-83
2023/06/26 05:25:31;;;;;;;10.63;6.30;;;;;;;;;;5034898;28;20032;-82
2023/06/26 05:27:58;;;;;;;11.13;6.35;;;;;;;;;;5045847;28;20020;-83
2023/06/26 05:30:31;;;;;;;10.73;6.70;;;;;;;;;;5074997;28;20025;-84
2023/06/26 05:32:59;;;;;;;9.90;6.03;;;;;;;;;;5061996;28;20048;-83
2023/06/26 05:35:25;;;;;;;12.02;6.30;;;;;;;;;;5046069;28;20030;-87
2023/06/26 05:37:51;;;;;;;7.45;5.75;;;;;;;;;;5005309;28;20040;-85
2023/06/26 05:40:20;;;;;;;10.90;5.03;;;;;;;;;;5040948;28;20091;-84
2023/06/26 05:42:46;;;;;;;7.57;5.47;;;;;;;;;;5037843;28;20060;-84
2023/06/26 05:45:11;;;;;;;10.30;5.43;;;;;;;;;;5032542;28;20080;-84
2023/06/26 05:48:03;;;;;;;6.80;4.93;;;;;;;;;;5050780;28;20442;-85
2023/06/26 05:50:29;;;;;;;7.43;4.95;;;;;;;;;;5018990;28;20407;-85
2023/06/26 05:52:55;;;;;;;11.75;5.07;;;;;;;;;;5034368;28;20045;-83
2023/06/26 05:55:21;;;;;;;6.68;4.25;;;;;;;;;;5042943;28;20484;-84
2023/06/26 05:57:46;;;;;;;6.35;4.68;;;;;;;;;;5020546;28;20033;-82
2023/06/26 06:00:13;;;;;;;7.30;4.53;;;;;;;;;;5034585;28;20032;-84
2023/06/26 06:02:39;;;;;;;5.95;5.00;;;;;;;;;;5025449;28;20127;-83
2023/06/26 06:05:05;;;;;;;8.63;4.50;;;;;;;;;;5034269;28;20075;-83
2023/06/26 06:07:32;;;;;;;6.63;4.47;;;;;;;;;;5036806;28;20045;-84
2023/06/26 06:09:57;;;;;;;8.77;4.60;;;;;;;;;;5033566;28;20126;-83
2023/06/26 06:12:23;;;;;;;7.28;4.85;;;;;;;;;;5033484;28;20060;-84
2023/06/26 06:14:48;;;;;;;4.70;4.10;;;;;;;;;;5033356;28;20044;-83
2023/06/26 06:17:14;;;;;;;4.25;3.85;;;;;;;;;;5049074;28;20044;-80
2023/06/26 06:19:39;;;;;;;7.22;4.63;;;;;;;;;;5043656;28;20033;-83
2023/06/26 06:22:08;;;;;;;7.10;3.95;;;;;;;;;;5034263;28;20511;-83
2023/06/26 06:24:36;;;;;;;4.93;4.10;;;;;;;;;;5033023;28;20041;-83
2023/06/26 06:27:01;;;;;;;4.63;4.10;;;;;;;;;;5033606;28;20029;-84
2023/06/26 06:29:27;;;;;;;5.30;3.50;;;;;;;;;;5021741;28;20044;-83
2023/06/26 06:31:54;;;;;;;4.53;3.80;;;;;;;;;;5040069;28;20370;-84
2023/06/26 06:34:20;;;;;;;5.97;3.60;;;;;;;;;;5037780;28;20517;-85
2023/06/26 06:36:46;;;;;;;6.00;3.50;;;;;;;;;;5035603;28;20029;-85
2023/06/26 06:39:12;;;;;;;4.22;3.42;;;;;;;;;;5051526;28;20029;-84
2023/06/26 06:41:38;;;;;;;6.38;3.47;;;;;;;;;;5035343;28;20355;-85
2023/06/26 06:44:05;;;;;;;5.53;3.38;;;;;;;;;;5039456;28;20045;-82
2023/06/26 06:46:30;;;;;;;4.28;3.42;;;;;;;;;;5020379;28;20463;-83
2023/06/26 06:48:56;;;;;;;4.50;3.30;;;;;;;;;;5035033;28;20037;-86
2023/06/26 06:51:22;;;;;;;3.97;3.28;;;;;;;;;;5020989;28;20044;-85
2023/06/26 06:53:49;;;;;;;6.75;3.30;;;;;;;;;;5031535;28;20033;-87
2023/06/26 06:56:15;;;;;;;4.55;2.97;;;;;;;;;;5045530;28;20103;-88
2023/06/26 06:58:42;;;;;;;3.72;2.90;;;;;;;;;;5038817;28;20455;-87
2023/06/26 07:01:09;;;;;;;2.85;2.65;;;;;;;;;;5019267;28;20052;-87
2023/06/26 07:03:34;;;;;;;5.97;3.00;;;;;;;;;;5047839;28;20057;-87
2023/06/26 07:05:59;;;;;;;12.82;2.83;;;;;;;;;;5017301;28;20123;-87
2023/06/26 07:08:25;;;;;;;6.53;3.00;;;;;;;;;;5032817;28;20026;-87
2023/06/26 07:10:51;;;;;;;7.97;2.80;;;;;;;;;;5031934;28;20091;-87
2023/06/26 07:13:16;;;;;;;3.25;2.67;;;;;;;;;;5033374;28;20115;-86
2023/06/26 07:15:43;;;;;;;4.28;2.78;;;;;;;;;;5014702;28;20630;-87
2023/06/26 07:18:08;;;;;;;2.92;2.63;;;;;;;;;;5014319;28;20120;-83
2023/06/26 07:20:33;;;;;;;3.28;2.67;;;;;;;;;;5013720;28;20026;-84
2023/06/26 07:23:02;;;;;;;5.10;2.80;;;;;;;;;;5032712;28;20030;-84
2023/06/26 07:25:27;;;;;;;4.00;2.80;;;;;;;;;;5032205;28;20025;-83
2023/06/26 07:27:53;;;;;;;7.07;2.75;;;;;;;;;;5031061;28;20022;-82
2023/06/26 07:30:19;;;;;;;3.40;2.58;;;;;;;;;;5033901;28;20337;-84
2023/06/26 07:32:44;;;;;;;4.38;2.65;;;;;;;;;;5033163;28;20021;-85
2023/06/26 07:35:10;;;;;;;4.72;2.60;;;;;;;;;;5031053;28;20029;-82
2023/06/26 07:37:35;;;;;;;5.00;2.63;;;;;;;;;;5023574;28;20040;-83
2023/06/26 07:40:01;;;;;;;6.68;2.95;;;;;;;;;;5052174;28;20025;-83
2023/06/26 07:42:26;;;;;;;3.58;2.72;;;;;;;;;;5066945;28;20465;-84
2023/06/26 07:44:52;;;;;;;3.47;2.53;;;;;;;;;;5069964;28;20053;-84
2023/06/26 07:47:17;;;;;;;3.13;2.50;;;;;;;;;;5067183;28;20455;-84
2023/06/26 07:49:42;;;;;;;7.40;2.60;;;;;;;;;;5033530;28;20032;-85
2023/06/26 07:52:10;;;;;;;5.15;3.05;;;;;;;;;;5050557;28;20032;-84
2023/06/26 07:54:36;;;;;;;6.65;2.47;;;;;;;;;;5051265;28;20280;-85
2023/06/26 07:57:03;;;;;;;3.60;2.28;;;;;;;;;;5032474;28;20066;-83
2023/06/26 07:59:29;;;;;;;4.57;2.78;;;;;;;;;;5050298;28;20033;-84
2023/06/26 08:01:56;;;;;;;3.58;2.65;;;;;;;;;;5031798;28;20067;-83
2023/06/26 08:04:25;;;;;;;6.07;2.80;;;;;;;;;;5015975;28;20446;-84
2023/06/26 08:06:57;;;;;;;6.47;2.90;;;;;;;;;;5014871;28;20091;-85
2023/06/26 08:09:24;;;;;;;3.92;2.85;;;;;;;;;;5032217;28;20025;-83
2023/06/26 08:11:49;;;;;;;4.88;2.95;;;;;;;;;;5031913;28;20053;-85
2023/06/26 08:14:15;;;;;;;4.93;3.15;;;;;;;;;;5016518;28;20057;-84
2023/06/26 08:16:41;;;;;;;6.60;2.65;;;;;;;;;;5015689;28;20033;-83
2023/06/26 08:19:07;;;;;;;11.23;2.80;;;;;;;;;;5015910;28;20026;-85
2023/06/26 08:21:32;;;;;;;4.65;2.88;;;;;;;;;;5039390;28;20108;-84
2023/06/26 08:23:57;;;;;;;4.72;2.80;;;;;;;;;;5022382;28;20033;-83
2023/06/26 08:26:23;;;;;;;4.90;2.50;;;;;;;;;;5039998;28;20455;-85
2023/06/26 08:28:48;;;;;;;3.80;2.45;;;;;;;;;;5039558;28;20060;-84
2023/06/26 08:31:14;;;;;;;7.45;2.47;;;;;;;;;;5021323;28;20021;-84
2023/06/26 08:33:39;;;;;;;4.07;2.58;;;;;;;;;;5040916;28;20026;-82
2023/06/26 08:36:05;;;;;;;6.80;2.55;;;;;;;;;;5022407;28;20021;-84
2023/06/26 08:38:31;;;;;;;5.18;2.90;;;;;;;;;;5039170;28;20036;-85
2023/06/26 09:02:58;;;;;;;5.80;2.65;;;;;;;;;;5131942;27;20435;-75
2023/06/26 09:05:23;;;;;;;5.85;2.63;;;;;;;;;;5113175;28;20446;-75
2023/06/26 09:07:49;;;;;;;7.18;2.50;;;;;;;;;;5142407;27;20027;-74
2023/06/26 09:10:14;;;;;;;3.67;2.38;;;;;;;;;;5132245;28;20427;-74
2023/06/26 09:12:40;;;;;;;4.18;2.13;;;;;;;;;;5131914;27;20071;-77
2023/06/26 09:15:06;;;;;;;4.05;2.38;;;;;;;;;;5132299;27;20338;-76
2023/06/26 09:17:34;;;;;;;5.80;3.03;;;;;;;;;;5130595;28;20101;-77
2023/06/26 09:20:00;;;;;;;3.83;2.60;;;;;;;;;;5130243;28;20437;-76
2023/06/26 09:22:25;;;;;;;3.90;2.58;;;;;;;;;;5129987;28;20098;-76
2023/06/26 09:24:51;;;;;;;3.15;2.10;;;;;;;;;;5113317;28;20061;-76
2023/06/26 09:27:16;;;;;;;2.58;2.15;;;;;;;;;;5138651;28;20016;-75
2023/06/26 09:29:42;;;;;;;4.40;2.53;;;;;;;;;;5131449;28;20028;-75
2023/06/26 09:32:09;;;;;;;7.03;2.63;;;;;;;;;;5113092;28;20126;-76
2023/06/26 09:34:34;;;;;;;4.60;2.15;;;;;;;;;;5130722;28;20023;-76
2023/06/26 09:37:02;;;;;;;5.38;2.60;;;;;;;;;;5129835;27;20031;-77
2023/06/26 09:39:49;;;;;;;5.13;2.60;;;;;;;;;;5129712;28;20051;-76
2023/06/26 09:42:15;;;;;;;6.70;2.30;;;;;;;;;;5130115;28;20031;-75
2023/06/26 09:47:33;;;;;;;4.25;2.45;;;;;;;;;;5139082;28;20415;-76
2023/06/26 09:49:59;;;;;;;8.50;2.50;;;;;;;;;;5110896;28;20108;-74
2023/06/26 09:52:26;;;;;;;3.53;2.25;;;;;;;;;;5129172;27;20028;-77
2023/06/26 09:54:51;;;;;;;5.68;2.40;;;;;;;;;;5094633;28;20458;-75
2023/06/26 09:57:17;;;;;;;6.53;2.03;;;;;;;;;;5112408;28;20069;-77
2023/06/26 09:59:45;;;;;;;3.08;2.40;;;;;;;;;;5129519;27;20122;-73
2023/06/26 10:02:11;;;;;;;3.67;2.22;;;;;;;;;;5126192;27;20052;-76
2023/06/26 10:04:37;;;;;;;3.40;2.60;;;;;;;;;;5117528;28;20028;-74
2023/06/26 10:07:05;;;;;;;2.60;2.40;;;;;;;;;;5121551;28;20088;-76
2023/06/26 10:09:34;;;;;;;3.95;2.40;;;;;;;;;;5117283;28;20435;-77
2023/06/26 10:12:11;;;;;;;2.70;2.33;;;;;;;;;;5115778;28;20035;-75
2023/06/26 10:14:37;;;;;;;4.65;2.45;;;;;;;;;;5099845;28;20023;-75
2023/06/26 10:17:09;;;;;;;3.75;2.30;;;;;;;;;;5124766;27;20386;-72
2023/06/26 10:19:34;;;;;;;4.28;2.13;;;;;;;;;;5077885;28;20484;-74
2023/06/26 10:22:00;;;;;;;2.67;2.15;;;;;;;;;;5078287;28;20036;-76
2023/06/26 10:24:26;;;;;;;2.58;2.38;;;;;;;;;;5095529;28;20101;-75
2023/06/26 10:27:16;;;;;;;2.60;2.05;;;;;;;;;;5123246;28;20434;-77
2023/06/26 10:29:41;;;;;;;2.90;2.38;;;;;;;;;;5095584;28;20089;-77
2023/06/26 10:32:07;;;;;;;2.55;2.00;;;;;;;;;;5095813;28;20039;-75
2023/06/26 10:34:32;;;;;;;4.10;2.22;;;;;;;;;;5093009;28;20096;-73
2023/06/26 10:37:01;;;;;;;2.47;2.10;;;;;;;;;;5102307;28;20023;-75
2023/06/26 10:39:27;;;;;;;2.13;1.90;;;;;;;;;;5094696;28;20040;-76
2023/06/26 10:41:54;;;;;;;3.78;2.00;;;;;;;;;;5093858;28;20036;-75
2023/06/26 10:44:20;;;;;;;3.05;1.85;;;;;;;;;;5094406;28;20081;-76
2023/06/26 10:46:53;;;;;;;4.63;2.53;;;;;;;;;;5102222;28;20040;-75
2023/06/26 10:49:24;;;;;;;10.77;2.17;;;;;;;;;;5094289;28;20031;-74
2023/06/26 10:51:50;;;;;;;4.85;2.42;;;;;;;;;;5094009;28;20131;-76
2023/06/26 10:54:19;;;;;;;4.35;2.53;;;;;;;;;;5094502;28;20116;-76
2023/06/26 10:56:46;;;;;;;2.75;2.33;;;;;;;;;;5096083;27;20339;-76
2023/06/26 10:59:18;;;;;;;5.13;2.28;;;;;;;;;;5095461;28;20043;-76
2023/06/26 11:01:45;;;;;;;5.13;2.40;;;;;;;;;;5078179;28;20373;-74
2023/06/26 11:04:11;;;;;;;2.95;2.60;;;;;;;;;;5094776;28;20036;-76
2023/06/26 11:06:40;;;;;;;6.65;3.10;;;;;;;;;;5084059;28;20035;-77
2023/06/26 11:09:05;;;;;;;4.30;3.15;;;;;;;;;;5093236;28;20118;-76
2023/06/26 11:11:59;;;;;;;4.53;3.33;;;;;;;;;;5094140;28;20177;-75
2023/06/26 11:14:26;;;;;;;4.60;3.40;;;;;;;;;;5092938;28;20481;-75
2023/06/26 11:16:51;;;;;;;3.67;2.70;;;;;;;;;;5059169;28;20081;-76
2023/06/26 11:19:18;;;;;;;5.05;2.67;;;;;;;;;;5093956;28;20028;-76
2023/06/26 11:21:43;;;;;;;3.03;2.72;;;;;;;;;;5095084;28;20024;-76
2023/06/26 11:24:09;;;;;;;3.30;2.72;;;;;;;;;;5097223;28;20036;-75
2023/06/26 11:26:41;;;;;;;3.85;2.63;;;;;;;;;;5107676;28;20408;-75
2023/06/26 11:29:07;;;;;;;3.17;2.45;;;;;;;;;;5094280;28;20055;-76
2023/06/26 11:31:34;;;;;;;3.63;3.13;;;;;;;;;;5095387;28;20375;-76
2023/06/26 11:34:00;;;;;;;5.70;2.75;;;;;;;;;;5095380;28;20032;-75
2023/06/26 11:36:26;;;;;;;5.00;2.80;;;;;;;;;;5093945;28;20466;-75
2023/06/26 11:39:02;;;;;;;5.05;2.90;;;;;;;;;;5094999;28;20043;-76
2023/06/26 11:41:29;;;;;;;5.20;3.17;;;;;;;;;;5093911;28;20472;-76
2023/06/26 11:43:55;;;;;;;6.53;3.35;;;;;;;;;;5096813;28;20039;-76
2023/06/26 11:46:21;;;;;;;4.50;3.10;;;;;;;;;;5107850;28;20028;-75
2023/06/26 11:48:47;;;;;;;7.05;2.65;;;;;;;;;;5077302;28;20090;-75
2023/06/26 11:51:14;;;;;;;3.58;2.80;;;;;;;;;;5093938;28;20430;-76
2023/06/26 11:53:41;;;;;;;4.85;2.60;;;;;;;;;;5093653;28;20093;-75
2023/06/26 11:56:10;;;;;;;7.80;3.00;;;;;;;;;;5093853;28;20093;-76
2023/06/26 11:58:36;;;;;;;;;;;;;;;;;;5095569;28;20458;-76
2023/06/26 12:01:02;;;;;;;5.85;2.90;;;;;;;;;;5127543;27;19989;-76
2023/06/26 12:03:29;;;;;;;2.92;2.65;;;;;;;;;;5094945;28;20020;-75
2023/06/26 12:05:54;;;;;;;4.15;2.90;;;;;;;;;;5100262;28;20032;-76
2023/06/26 12:08:19;;;;;;;3.45;2.63;;;;;;;;;;5093493;28;20031;-76
2023/06/26 12:10:45;;;;;;;3.83;3.20;;;;;;;;;;5110389;28;20431;-76
2023/06/26 12:13:10;;;;;;;5.70;2.60;;;;;;;;;;5110649;28;20065;-77
2023/06/26 12:15:36;;;;;;;2.65;2.45;;;;;;;;;;5093045;28;20435;-76
2023/06/26 12:18:08;;;;;;;4.15;2.70;;;;;;;;;;5094727;28;20465;-76
2023/06/26 12:20:33;;;;;;;4.43;2.85;;;;;;;;;;5110389;28;20055;-75
2023/06/26 12:22:59;;;;;;;3.75;2.70;;;;;;;;;;5094734;28;20067;-75
2023/06/26 12:25:24;;;;;;;7.10;2.50;;;;;;;;;;5104939;28;20081;-76
2023/06/26 12:27:49;;;;;;;6.55;2.90;;;;;;;;;;5094418;28;20047;-76
2023/06/26 12:30:15;;;;;;;3.05;2.60;;;;;;;;;;5094705;28;20024;-75
2023/06/26 12:32:44;;;;;;;5.40;2.90;;;;;;;;;;5094503;28;20085;-76
2023/06/26 12:35:10;;;;;;;6.13;4.32;;;;;;;;;;5092979;28;20039;-75
2023/06/26 12:37:43;;;;;;;7.63;4.78;;;;;;;;;;5093224;28;20036;-76
2023/06/26 12:40:19;;;;;;;4.70;3.33;;;;;;;;;;5092897;28;20127;-76
2023/06/26 12:42:45;;;;;;;5.40;2.70;;;;;;;;;;5094337;28;20024;-76
2023/06/26 12:45:14;;;;;;;4.40;2.70;;;;;;;;;;5120884;28;20033;-76
2023/06/26 12:47:41;;;;;;;2.85;2.50;;;;;;;;;;5094295;28;20043;-75
2023/06/26 12:50:07;;;;;;;8.52;2.60;;;;;;;;;;5094480;28;20028;-76
2023/06/26 12:52:32;;;;;;;3.55;2.60;;;;;;;;;;5095227;28;20505;-75
2023/06/26 12:54:58;;;;;;;3.78;2.40;;;;;;;;;;5114031;28;20105;-76
2023/06/26 12:57:23;;;;;;;3.05;2.50;;;;;;;;;;5075785;28;20039;-76
2023/06/26 12:59:49;;;;;;;5.00;2.58;;;;;;;;;;5093611;28;20466;-76
2023/06/26 13:02:14;;;;;;;4.25;2.78;;;;;;;;;;5093895;28;20109;-83
2023/06/26 13:04:40;;;;;;;5.15;2.90;;;;;;;;;;5109166;28;20085;-84
2023/06/26 13:07:06;;;;;;;3.15;2.50;;;;;;;;;;5099256;28;20063;-84
2023/06/26 13:09:33;;;;;;;3.63;2.70;;;;;;;;;;5083159;28;20077;-84
2023/06/26 13:11:59;;;;;;;4.43;3.35;;;;;;;;;;5104073;28;20040;-84
2023/06/26 13:14:24;;;;;;;4.30;2.80;;;;;;;;;;5103590;28;20040;-84
2023/06/26 13:16:51;;;;;;;3.78;2.75;;;;;;;;;;5097717;28;20059;-83
2023/06/26 13:19:16;;;;;;;3.85;2.85;;;;;;;;;;5093140;28;20028;-85
2023/06/26 13:21:42;;;;;;;4.05;3.05;;;;;;;;;;5104025;28;20026;-83
2023/06/26 13:24:07;;;;;;;7.30;2.85;;;;;;;;;;5107324;28;20034;-85
2023/06/26 13:26:33;;;;;;;6.60;2.88;;;;;;;;;;5093822;28;20093;-83
2023/06/26 13:28:58;;;;;;;7.75;2.92;;;;;;;;;;5109631;28;20078;-83
2023/06/26 13:31:24;;;;;;;3.55;3.25;;;;;;;;;;5093277;28;20028;-84
2023/06/26 13:33:50;;;;;;;3.67;3.10;;;;;;;;;;5059231;28;20028;-84
2023/06/26 13:36:16;;;;;;;6.75;3.30;;;;;;;;;;5076252;28;20058;-82
2023/06/26 13:38:41;;;;;;;5.68;3.30;;;;;;;;;;5130033;27;20028;-85
2023/06/26 13:41:07;;;;;;;6.43;3.20;;;;;;;;;;5083994;28;20036;-84
2023/06/26 13:43:32;;;;;;;4.35;3.63;;;;;;;;;;5126265;28;20056;-84
2023/06/26 13:45:58;;;;;;;4.75;3.25;;;;;;;;;;5098347;28;20089;-85
2023/06/26 13:48:26;;;;;;;9.52;3.25;;;;;;;;;;5113964;28;20040;-85
2023/06/26 13:50:52;;;;;;;9.55;3.15;;;;;;;;;;5097548;28;20032;-85
2023/06/26 13:53:18;;;;;;;7.82;3.38;;;;;;;;;;5096774;28;20093;-83
2023/06/26 13:55:43;;;;;;;6.15;3.30;;;;;;;;;;5079305;28;20446;-82
2023/06/26 13:58:09;;;;;;;12.05;3.67;;;;;;;;;;5097376;28;20111;-83
2023/06/26 14:00:35;;;;;;;5.43;3.15;;;;;;;;;;5098478;28;20020;-84
2023/06/26 14:03:03;;;;;;;5.53;3.42;;;;;;;;;;5108117;28;20443;-82
2023/06/26 14:05:31;;;;;;;4.93;3.55;;;;;;;;;;5116000;28;20020;-83
2023/06/26 14:07:56;;;;;;;6.13;3.60;;;;;;;;;;5082384;28;20024;-83
2023/06/26 14:10:22;;;;;;;8.57;3.60;;;;;;;;;;5115448;28;20036;-84
2023/06/26 14:12:48;;;;;;;4.15;3.42;;;;;;;;;;5097296;28;20026;-83
2023/06/26 14:15:13;;;;;;;6.10;3.42;;;;;;;;;;5096920;28;20027;-82
2023/06/26 14:17:41;;;;;;;3.70;3.35;;;;;;;;;;5097446;28;20032;-83
2023/06/26 14:20:12;;;;;;;5.18;3.20;;;;;;;;;;5096944;28;20496;-82
2023/06/26 14:22:40;;;;;;;8.23;3.50;;;;;;;;;;5111668;28;20078;-84
2023/06/26 14:25:09;;;;;;;6.10;3.25;;;;;;;;;;5131045;27;20081;-84
2023/06/26 14:27:35;;;;;;;5.20;3.05;;;;;;;;;;5095639;28;20355;-83
2023/06/26 14:30:00;;;;;;;4.38;3.30;;;;;;;;;;5096785;28;20070;-83
2023/06/26 14:32:26;;;;;;;3.92;2.85;;;;;;;;;;5096875;28;20028;-84
2023/06/26 14:34:52;;;;;;;3.65;3.17;;;;;;;;;;5096820;28;20130;-83
2023/06/26 14:37:18;;;;;;;3.38;3.08;;;;;;;;;;5078524;28;20118;-82
2023/06/26 14:39:45;;;;;;;4.55;3.00;;;;;;;;;;5078889;28;20043;-82
2023/06/26 14:42:10;;;;;;;4.78;3.45;;;;;;;;;;5109875;28;20189;-83
2023/06/26 14:44:36;;;;;;;3.95;3.20;;;;;;;;;;5097658;28;20069;-82
2023/06/26 14:47:01;;;;;;;7.10;3.38;;;;;;;;;;5095316;28;20024;-81
2023/06/26 14:49:27;;;;;;;3.90;3.47;;;;;;;;;;5096785;28;20027;-80
2023/06/26 14:51:52;;;;;;;3.58;3.28;;;;;;;;;;5107996;28;20042;-82
2023/06/26 14:54:18;;;;;;;3.53;3.22;;;;;;;;;;5098393;28;20030;-84
2023/06/26 14:56:45;;;;;;;3.97;3.20;;;;;;;;;;5112311;28;20039;-84
2023/06/26 14:59:11;;;;;;;6.57;3.05;;;;;;;;;;5096118;28;20430;-83